Time;durP1;ratioP1;P1;durP2;ratioP2;P2;SDS_P1;SDS_P2;PMS_P1;PMS_P2;Temp;Humidity;BMP_temperature;BMP_pressure;BME280_temperature;BME280_humidity;BME280_pressure;Samples;Min_cycle;Max_cycle;Signal;HPM_P1;HPM_P2
2021/01/14 00:00:29;;;;;;;29.13;25.95;;;19.00;39.40;;;;;;5095337;28;20090;-56
2021/01/14 00:02:55;;;;;;;29.80;26.70;;;19.00;39.40;;;;;;5093330;28;20036;-55
2021/01/14 00:05:22;;;;;;;30.17;26.00;;;19.00;39.40;;;;;;5096914;28;20454;-54
2021/01/14 00:07:49;;;;;;;41.45;37.05;;;18.90;39.30;;;;;;5096668;28;20024;-54
2021/01/14 00:10:16;;;;;;;35.25;31.55;;;18.90;39.60;;;;;;5096603;28;20111;-55
2021/01/14 00:12:43;;;;;;;33.08;29.35;;;18.90;39.50;;;;;;5085431;28;20081;-54
2021/01/14 00:15:11;;;;;;;31.13;27.88;;;18.90;39.30;;;;;;5076372;28;20032;-54
2021/01/14 00:17:37;;;;;;;35.10;31.35;;;18.80;39.20;;;;;;5086394;28;20031;-54
2021/01/14 00:20:10;;;;;;;38.42;32.53;;;18.90;39.20;;;;;;5084236;28;20067;-55
2021/01/14 00:22:36;;;;;;;33.55;30.10;;;18.90;39.10;;;;;;5076670;28;20490;-55
2021/01/14 00:25:03;;;;;;;34.75;30.95;;;18.90;39.10;;;;;;5076206;28;20356;-55
2021/01/14 00:27:30;;;;;;;35.45;31.67;;;18.80;38.90;;;;;;5092051;28;20469;-55
2021/01/14 00:29:56;;;;;;;36.95;32.92;;;18.80;38.90;;;;;;5076240;28;20363;-55
2021/01/14 00:32:23;;;;;;;37.28;31.80;;;18.80;38.90;;;;;;5075935;28;20048;-55
2021/01/14 00:34:49;;;;;;;35.65;31.92;;;18.80;38.80;;;;;;5076052;28;20074;-55
2021/01/14 00:39:59;;;;;;;32.25;28.85;;;18.70;38.70;;;;;;5075956;28;20064;-55
2021/01/14 00:42:25;;;;;;;38.08;34.08;;;18.70;38.60;;;;;;5076099;28;20024;-55
2021/01/14 00:44:51;;;;;;;38.35;33.78;;;18.70;38.60;;;;;;5075985;28;20040;-55
2021/01/14 00:47:17;;;;;;;36.38;32.40;;;18.70;38.60;;;;;;5075855;28;20048;-55
2021/01/14 00:49:43;;;;;;;37.55;33.65;;;18.70;38.50;;;;;;5092025;28;20485;-55
2021/01/14 00:52:10;;;;;;;35.90;32.10;;;18.70;38.50;;;;;;5095944;28;20032;-55
2021/01/14 00:54:38;;;;;;;37.70;33.42;;;18.70;38.50;;;;;;5095033;28;20028;-55
2021/01/14 00:57:10;;;;;;;35.58;31.83;;;18.60;39.00;;;;;;5095587;28;20326;-55
2021/01/14 00:59:36;;;;;;;37.85;33.85;;;18.60;38.30;;;;;;5095893;28;20039;-55
2021/01/14 01:02:06;;;;;;;36.85;32.65;;;18.60;38.40;;;;;;5095856;28;20016;-55
2021/01/14 01:04:32;;;;;;;43.25;32.65;;;18.60;38.30;;;;;;5095786;28;20039;-53
2021/01/14 01:06:58;;;;;;;37.40;33.40;;;18.60;38.30;;;;;;5094397;28;20036;-56
2021/01/14 01:09:24;;;;;;;37.17;33.25;;;18.60;38.30;;;;;;5087711;28;20028;-56
2021/01/14 01:11:50;;;;;;;33.08;29.67;;;18.60;38.30;;;;;;5075214;28;20112;-55
2021/01/14 01:14:16;;;;;;;36.15;32.35;;;18.60;38.20;;;;;;5074985;28;20054;-55
2021/01/14 01:16:42;;;;;;;34.67;29.95;;;18.50;38.20;;;;;;5075142;28;20033;-53
2021/01/14 01:19:08;;;;;;;34.22;30.50;;;18.50;38.10;;;;;;5075173;28;20527;-54
2021/01/14 01:21:34;;;;;;;31.45;28.05;;;18.50;38.10;;;;;;5073734;28;20424;-55
2021/01/14 01:24:00;;;;;;;30.75;27.60;;;18.50;37.90;;;;;;5074933;28;20045;-55
2021/01/14 01:26:27;;;;;;;30.23;27.05;;;18.50;38.00;;;;;;5075212;28;20120;-55
2021/01/14 01:28:53;;;;;;;30.35;27.20;;;18.50;37.90;;;;;;5075207;28;20111;-54
2021/01/14 01:31:19;;;;;;;30.95;27.67;;;18.50;37.90;;;;;;5074156;28;20127;-55
2021/01/14 01:33:45;;;;;;;30.95;27.58;;;18.40;37.80;;;;;;5073572;28;20090;-55
2021/01/14 01:36:13;;;;;;;31.65;28.25;;;18.40;37.80;;;;;;5073788;28;20032;-55
2021/01/14 01:38:39;;;;;;;30.83;27.48;;;18.40;37.90;;;;;;5073612;28;20024;-55
2021/01/14 01:41:05;;;;;;;30.25;27.05;;;18.40;37.90;;;;;;5073705;28;20028;-55
2021/01/14 01:43:31;;;;;;;31.55;28.15;;;18.40;37.90;;;;;;5073594;28;20090;-55
2021/01/14 01:46:00;;;;;;;32.25;28.75;;;18.40;37.90;;;;;;5073518;28;20034;-55
2021/01/14 01:48:27;;;;;;;30.70;27.45;;;18.40;37.90;;;;;;5073254;28;20032;-55
2021/01/14 01:50:57;;;;;;;32.00;28.50;;;18.40;37.90;;;;;;5073548;28;20128;-55
2021/01/14 01:53:24;;;;;;;31.75;28.25;;;18.30;37.80;;;;;;5074084;28;20036;-55
2021/01/14 01:55:50;;;;;;;30.58;27.38;;;18.40;37.90;;;;;;5074545;28;20044;-56
2021/01/14 01:58:21;;;;;;;30.85;27.65;;;18.30;37.80;;;;;;5074880;28;20051;-54
2021/01/14 02:00:47;;;;;;;;;;;18.30;37.80;;;;;;5074905;28;20078;-54
2021/01/14 02:03:13;;;;;;;29.20;26.00;;;18.30;38.00;;;;;;5074003;28;20369;-54
2021/01/14 02:05:39;;;;;;;29.35;26.27;;;18.40;37.70;;;;;;5074684;28;20037;-55
2021/01/14 02:08:28;;;;;;;28.52;25.48;;;18.30;37.60;;;;;;5074381;28;20020;-55
2021/01/14 02:11:04;;;;;;;29.10;25.95;;;18.30;37.60;;;;;;5074146;28;20052;-55
2021/01/14 02:13:42;;;;;;;26.67;23.83;;;18.30;38.20;;;;;;5073908;28;20477;-55
2021/01/14 02:16:09;;;;;;;26.67;23.70;;;18.30;37.60;;;;;;5074040;28;20024;-55
2021/01/14 02:18:36;;;;;;;29.00;25.05;;;18.20;37.60;;;;;;5073979;28;20056;-56
2021/01/14 02:21:04;;;;;;;27.00;23.25;;;18.20;37.60;;;;;;5073943;28;20577;-55
2021/01/14 02:23:52;;;;;;;29.23;25.40;;;18.20;37.60;;;;;;5073727;28;20490;-55
2021/01/14 02:26:24;;;;;;;26.63;23.65;;;18.20;37.60;;;;;;5073959;28;20025;-55
2021/01/14 02:28:52;;;;;;;27.48;24.58;;;18.20;37.60;;;;;;5073632;28;20112;-55
2021/01/14 02:31:20;;;;;;;27.90;24.65;;;18.20;37.60;;;;;;5073970;28;20048;-56
2021/01/14 02:33:49;;;;;;;28.92;25.33;;;18.20;37.60;;;;;;5072634;28;20063;-56
2021/01/14 02:36:14;;;;;;;27.27;24.58;;;18.20;37.60;;;;;;5075441;28;20418;-54
2021/01/14 02:38:40;;;;;;;30.52;26.88;;;18.20;37.70;;;;;;5093903;28;20119;-54
2021/01/14 02:41:06;;;;;;;30.40;26.08;;;18.20;37.70;;;;;;5093886;28;20048;-55
2021/01/14 02:43:33;;;;;;;31.13;27.27;;;18.10;37.70;;;;;;5093427;28;20059;-54
2021/01/14 02:45:59;;;;;;;30.45;27.13;;;18.10;37.70;;;;;;5092590;28;20055;-54
2021/01/14 02:48:34;;;;;;;29.85;26.75;;;18.10;37.70;;;;;;5092360;28;20043;-55
2021/01/14 02:51:05;;;;;;;31.45;28.08;;;18.10;37.70;;;;;;5092443;28;20028;-54
2021/01/14 02:53:32;;;;;;;30.63;27.33;;;18.10;37.80;;;;;;5092518;28;20050;-57
2021/01/14 02:56:00;;;;;;;31.60;27.65;;;18.10;37.80;;;;;;5092563;28;20493;-55
2021/01/14 02:58:28;;;;;;;32.10;27.80;;;18.10;37.80;;;;;;5092586;28;20042;-55
2021/01/14 03:00:55;;;;;;;29.77;26.58;;;18.10;37.80;;;;;;5093286;28;20028;-55
2021/01/14 03:03:21;;;;;;;31.08;27.63;;;18.10;37.70;;;;;;5093170;28;20160;-54
2021/01/14 03:05:47;;;;;;;30.02;26.67;;;18.10;37.80;;;;;;5092757;28;20013;-54
2021/01/14 03:08:13;;;;;;;29.10;26.08;;;18.00;37.70;;;;;;5093453;28;20028;-55
2021/01/14 03:10:39;;;;;;;28.33;25.25;;;18.10;37.70;;;;;;5093563;28;20020;-54
2021/01/14 03:13:05;;;;;;;28.13;25.08;;;18.10;37.70;;;;;;5092385;28;20031;-55
2021/01/14 03:15:31;;;;;;;27.13;24.23;;;18.00;37.70;;;;;;5093605;28;20052;-55
2021/01/14 03:17:57;;;;;;;27.55;24.65;;;18.00;37.70;;;;;;5093360;28;20021;-55
2021/01/14 03:20:23;;;;;;;28.50;25.45;;;18.00;37.70;;;;;;5093475;28;20025;-55
2021/01/14 03:22:49;;;;;;;29.42;26.15;;;18.00;37.70;;;;;;5093406;28;20547;-53
2021/01/14 03:25:15;;;;;;;28.83;25.60;;;18.00;37.70;;;;;;5093403;28;20039;-56
2021/01/14 03:27:42;;;;;;;27.25;24.25;;;18.00;37.70;;;;;;5093387;28;20028;-53
2021/01/14 03:30:11;;;;;;;27.17;24.20;;;18.00;37.70;;;;;;5093639;28;20024;-54
2021/01/14 03:32:37;;;;;;;26.92;23.75;;;18.00;37.70;;;;;;5093210;28;20068;-54
2021/01/14 03:35:06;;;;;;;29.63;25.67;;;18.00;37.70;;;;;;5093245;28;20032;-54
2021/01/14 03:37:32;;;;;;;25.88;23.23;;;17.90;37.70;;;;;;5093263;28;20111;-54
2021/01/14 03:39:58;;;;;;;28.35;23.90;;;18.00;37.70;;;;;;5093289;28;20550;-55
2021/01/14 03:42:24;;;;;;;25.60;22.83;;;18.00;37.70;;;;;;5093176;28;20051;-55
2021/01/14 03:44:50;;;;;;;24.02;21.45;;;17.90;37.60;;;;;;5093184;28;20703;-55
2021/01/14 03:47:16;;;;;;;25.83;23.00;;;17.90;37.60;;;;;;5093545;28;20058;-55
2021/01/14 03:49:42;;;;;;;23.48;21.00;;;17.90;37.70;;;;;;5093052;28;20035;-54
2021/01/14 03:52:09;;;;;;;25.80;23.02;;;17.90;37.70;;;;;;5093342;28;20039;-54
2021/01/14 03:54:35;;;;;;;26.08;23.33;;;17.90;37.60;;;;;;5093254;28;20484;-54
2021/01/14 03:57:01;;;;;;;25.10;21.70;;;17.90;37.60;;;;;;5091870;28;20381;-54
2021/01/14 03:59:27;;;;;;;24.13;21.30;;;17.90;37.60;;;;;;5093095;28;20043;-54
2021/01/14 04:01:59;;;;;;;24.00;21.48;;;17.90;37.60;;;;;;5093094;28;20462;-54
2021/01/14 04:04:25;;;;;;;24.52;21.75;;;17.90;37.60;;;;;;5093193;28;20474;-54
2021/01/14 04:06:51;;;;;;;23.65;21.15;;;17.90;37.70;;;;;;5091777;28;20382;-54
2021/01/14 04:09:18;;;;;;;24.42;21.83;;;17.90;37.70;;;;;;5093032;28;20036;-54
2021/01/14 04:11:44;;;;;;;23.80;21.30;;;17.90;37.70;;;;;;5092962;28;20112;-54
2021/01/14 04:14:10;;;;;;;25.08;21.67;;;17.80;37.70;;;;;;5091602;28;20077;-54
2021/01/14 04:16:36;;;;;;;24.35;21.75;;;17.90;37.70;;;;;;5095334;28;20021;-54
2021/01/14 04:19:02;;;;;;;23.10;20.08;;;17.80;37.60;;;;;;5096432;28;20031;-54
2021/01/14 04:21:28;;;;;;;20.95;18.75;;;17.90;37.70;;;;;;5096665;28;20028;-54
2021/01/14 04:23:54;;;;;;;22.42;19.98;;;17.90;37.60;;;;;;5093963;28;20481;-54
2021/01/14 04:26:20;;;;;;;20.67;18.17;;;17.80;37.50;;;;;;5095391;28;20043;-55
2021/01/14 04:28:46;;;;;;;21.42;18.90;;;17.80;37.50;;;;;;5096247;28;20032;-53
2021/01/14 04:31:12;;;;;;;20.55;18.35;;;17.80;37.40;;;;;;5096420;28;20058;-54
2021/01/14 04:33:38;;;;;;;19.15;17.05;;;17.80;37.40;;;;;;5096132;28;20032;-54
2021/01/14 04:36:05;;;;;;;19.58;17.35;;;17.80;37.30;;;;;;5096115;28;20537;-54
2021/01/14 04:38:31;;;;;;;18.13;16.10;;;17.80;37.30;;;;;;5096120;28;20038;-55
2021/01/14 04:41:02;;;;;;;19.75;17.17;;;17.70;37.20;;;;;;5095805;28;20097;-55
2021/01/14 04:43:33;;;;;;;19.13;16.85;;;17.80;37.20;;;;;;5095714;28;20381;-54
2021/01/14 04:46:04;;;;;;;17.50;15.70;;;17.70;37.20;;;;;;5095837;28;20020;-54
2021/01/14 04:48:37;;;;;;;18.35;15.98;;;17.70;37.10;;;;;;5095840;28;20051;-54
2021/01/14 04:51:19;;;;;;;16.35;14.50;;;17.70;37.10;;;;;;5094908;28;20054;-54
2021/01/14 04:53:49;;;;;;;18.77;15.40;;;17.70;37.10;;;;;;5095507;28;20115;-54
2021/01/14 04:56:18;;;;;;;16.13;14.50;;;17.70;37.10;;;;;;5095820;28;20073;-54
2021/01/14 04:58:49;;;;;;;16.35;13.98;;;17.70;37.20;;;;;;5095929;28;20047;-54
2021/01/14 05:01:23;;;;;;;16.40;14.48;;;17.70;37.20;;;;;;5095515;28;20036;-54
2021/01/14 05:03:51;;;;;;;16.63;14.88;;;17.70;37.10;;;;;;5093933;28;20472;-54
2021/01/14 05:06:26;;;;;;;15.45;13.80;;;17.70;37.10;;;;;;5095368;28;20347;-55
2021/01/14 05:09:02;;;;;;;15.77;14.07;;;17.70;37.00;;;;;;5075169;28;20032;-55
2021/01/14 05:11:33;;;;;;;16.08;13.45;;;17.70;37.10;;;;;;5074784;28;20032;-54
2021/01/14 05:14:03;;;;;;;16.02;14.13;;;17.70;37.10;;;;;;5074887;28;20029;-54
2021/01/14 05:16:29;;;;;;;14.65;13.00;;;17.70;37.00;;;;;;5074965;28;20103;-54
2021/01/14 05:18:54;;;;;;;14.13;12.70;;;17.70;37.10;;;;;;5074735;28;20427;-54
2021/01/14 05:21:22;;;;;;;14.27;12.43;;;17.60;37.00;;;;;;5074796;28;20028;-54
2021/01/14 05:23:48;;;;;;;16.50;12.88;;;17.60;37.00;;;;;;5078647;28;20180;-53
2021/01/14 05:26:31;;;;;;;14.98;12.43;;;17.70;37.10;;;;;;5094737;28;20525;-54
2021/01/14 05:28:57;;;;;;;13.35;11.73;;;17.60;37.00;;;;;;5092954;28;20038;-54
2021/01/14 05:31:23;;;;;;;13.02;11.68;;;17.60;37.00;;;;;;5093867;28;20040;-54
2021/01/14 05:33:59;;;;;;;14.07;12.18;;;17.60;37.00;;;;;;5094021;28;20175;-54
2021/01/14 05:36:25;;;;;;;13.68;11.55;;;17.60;37.60;;;;;;5093866;28;20028;-54
2021/01/14 05:38:51;;;;;;;14.95;12.05;;;17.60;37.10;;;;;;5094990;28;20024;-54
2021/01/14 05:41:18;;;;;;;13.00;11.65;;;17.60;37.10;;;;;;5094542;28;20439;-54
2021/01/14 05:43:50;;;;;;;13.73;12.18;;;17.60;37.10;;;;;;5094365;28;20060;-54
2021/01/14 05:46:22;;;;;;;15.07;11.90;;;17.60;37.10;;;;;;5094796;28;20050;-53
2021/01/14 05:48:51;;;;;;;13.80;12.32;;;17.50;37.10;;;;;;5094628;28;20109;-54
2021/01/14 05:51:25;;;;;;;13.98;12.55;;;17.60;37.20;;;;;;5093378;28;20296;-54
2021/01/14 05:54:05;;;;;;;14.18;11.95;;;17.60;37.20;;;;;;5094653;28;20100;-54
2021/01/14 05:56:50;;;;;;;14.95;11.93;;;17.50;37.20;;;;;;5094756;28;20027;-54
2021/01/14 05:59:18;;;;;;;15.07;11.77;;;17.50;37.20;;;;;;5094271;28;20036;-54
2021/01/14 06:01:59;;;;;;;13.50;12.10;;;17.50;37.20;;;;;;5094542;28;20020;-54
2021/01/14 06:04:31;;;;;;;13.32;11.90;;;17.50;37.20;;;;;;5093570;28;20111;-55
2021/01/14 06:07:05;;;;;;;15.20;11.85;;;17.50;37.20;;;;;;5094315;28;20023;-55
2021/01/14 06:09:41;;;;;;;13.60;12.15;;;17.50;37.30;;;;;;5094476;28;20028;-55
2021/01/14 06:12:12;;;;;;;15.02;12.00;;;17.50;37.30;;;;;;5092415;28;20028;-55
2021/01/14 06:14:39;;;;;;;12.65;11.35;;;17.50;37.40;;;;;;5092374;28;20028;-55
2021/01/14 06:17:07;;;;;;;14.57;12.20;;;17.50;37.40;;;;;;5094000;28;20813;-55
2021/01/14 06:19:34;;;;;;;14.10;12.07;;;17.50;37.40;;;;;;5093745;28;20035;-55
2021/01/14 06:22:01;;;;;;;13.18;11.68;;;17.50;37.50;;;;;;5092240;28;20020;-53
2021/01/14 06:24:28;;;;;;;14.63;12.98;;;17.50;37.40;;;;;;5091578;28;20389;-54
2021/01/14 06:27:06;;;;;;;13.93;11.55;;;17.50;37.50;;;;;;5092932;28;20094;-55
2021/01/14 06:29:35;;;;;;;14.32;12.50;;;17.40;37.50;;;;;;5092385;28;20028;-54
2021/01/14 06:32:13;;;;;;;13.65;12.23;;;17.40;37.50;;;;;;5092183;28;20060;-54
2021/01/14 06:34:50;;;;;;;15.15;13.63;;;17.40;37.60;;;;;;5093699;28;20032;-54
2021/01/14 06:37:27;;;;;;;15.23;13.00;;;17.40;37.70;;;;;;5093171;28;20054;-54
2021/01/14 06:39:57;;;;;;;14.40;12.95;;;17.40;37.60;;;;;;5081611;28;20028;-54
2021/01/14 06:42:27;;;;;;;14.52;12.82;;;17.40;37.70;;;;;;5091832;28;20461;-54
2021/01/14 06:45:11;;;;;;;13.67;12.10;;;17.40;37.70;;;;;;5093373;28;20051;-54
2021/01/14 06:47:45;;;;;;;13.95;12.43;;;17.40;37.70;;;;;;5093782;28;20276;-54
2021/01/14 06:50:22;;;;;;;13.85;11.85;;;17.40;37.60;;;;;;5091988;28;20056;-54
2021/01/14 06:52:55;;;;;;;12.57;11.27;;;17.40;37.60;;;;;;5094019;28;20354;-54
2021/01/14 06:55:23;;;;;;;13.20;11.88;;;17.40;37.60;;;;;;5093660;28;20035;-54
2021/01/14 06:58:13;;;;;;;12.95;11.65;;;17.40;37.60;;;;;;5093010;28;20038;-54
2021/01/14 07:00:45;;;;;;;12.93;11.50;;;17.40;37.60;;;;;;5093817;28;20070;-54
2021/01/14 07:03:14;;;;;;;13.55;11.35;;;17.40;37.60;;;;;;5096263;28;20354;-54
2021/01/14 07:05:53;;;;;;;12.65;11.35;;;17.40;37.60;;;;;;5092608;28;20032;-55
2021/01/14 07:08:47;;;;;;;13.18;11.50;;;17.40;37.60;;;;;;5103935;28;20023;-54
2021/01/14 07:11:16;;;;;;;15.13;11.93;;;17.40;37.70;;;;;;5088159;28;20035;-55
2021/01/14 07:13:43;;;;;;;13.32;11.20;;;17.40;37.70;;;;;;5093414;28;20031;-55
2021/01/14 07:16:14;;;;;;;12.70;11.38;;;17.30;37.60;;;;;;5092106;28;20051;-55
2021/01/14 07:18:41;;;;;;;13.90;11.77;;;17.30;37.70;;;;;;5090543;28;20089;-54
2021/01/14 07:21:25;;;;;;;11.85;10.35;;;17.40;37.90;;;;;;5093347;28;20021;-57
2021/01/14 07:23:53;;;;;;;118.57;89.60;;;17.30;37.80;;;;;;5092088;28;20035;-54
2021/01/14 07:26:22;;;;;;;101.07;85.97;;;17.30;37.80;;;;;;5092443;28;20315;-54
2021/01/14 07:28:49;;;;;;;77.55;69.15;;;17.30;37.70;;;;;;5084539;28;20016;-55
2021/01/14 07:31:24;;;;;;;71.03;63.30;;;17.40;37.80;;;;;;5072039;28;20585;-55
2021/01/14 07:33:51;;;;;;;60.15;51.28;;;17.30;37.60;;;;;;5072402;28;20124;-55
2021/01/14 07:36:21;;;;;;;58.10;51.50;;;17.30;38.20;;;;;;5087601;28;20028;-55
2021/01/14 07:38:54;;;;;;;52.58;46.92;;;17.30;37.60;;;;;;5092810;28;20122;-55
2021/01/14 07:41:22;;;;;;;50.40;44.90;;;17.30;37.50;;;;;;5092555;28;20032;-55
2021/01/14 07:43:50;;;;;;;45.45;40.50;;;17.30;37.50;;;;;;5092586;28;20111;-55
2021/01/14 07:46:24;;;;;;;102.75;84.68;;;17.30;37.50;;;;;;5091842;28;20033;-54
2021/01/14 07:48:52;;;;;;;103.50;89.80;;;17.30;37.10;;;;;;5092958;28;20028;-55
2021/01/14 07:51:19;;;;;;;104.57;93.05;;;17.30;37.20;;;;;;5094108;28;20021;-53
2021/01/14 07:54:08;;;;;;;101.72;86.30;;;17.30;37.20;;;;;;5097030;28;20036;-54
2021/01/14 07:56:50;;;;;;;98.07;86.10;;;17.30;37.20;;;;;;5084897;28;20431;-54
2021/01/14 07:59:29;;;;;;;87.20;77.80;;;17.20;37.10;;;;;;5096939;28;20414;-54
2021/01/14 08:02:07;;;;;;;75.70;67.40;;;17.30;37.10;;;;;;5095115;28;20028;-54
2021/01/14 08:04:53;;;;;;;80.55;71.00;;;17.30;37.10;;;;;;5096722;28;20032;-55
2021/01/14 08:07:26;;;;;;;69.72;61.72;;;17.30;37.20;;;;;;5097084;28;20089;-54
2021/01/14 08:09:52;;;;;;;64.57;57.67;;;17.30;37.20;;;;;;5096675;28;20028;-54
2021/01/14 08:12:28;;;;;;;67.80;57.88;;;17.30;37.10;;;;;;5096325;28;20032;-54
2021/01/14 08:14:54;;;;;;;59.28;52.50;;;17.30;37.10;;;;;;5095327;28;20028;-53
2021/01/14 08:17:27;;;;;;;56.22;50.15;;;17.30;37.20;;;;;;5096496;28;20074;-53
2021/01/14 08:19:54;;;;;;;53.13;47.25;;;17.30;37.00;;;;;;5096822;28;20028;-53
2021/01/14 08:22:21;;;;;;;54.13;48.13;;;17.30;37.10;;;;;;5095171;28;20032;-55
2021/01/14 08:24:54;;;;;;;51.00;43.78;;;17.30;37.00;;;;;;5096574;28;20020;-55
2021/01/14 08:27:26;;;;;;;48.42;42.33;;;17.40;37.00;;;;;;5096539;28;20442;-55
2021/01/14 08:30:14;;;;;;;42.45;37.85;;;17.40;36.90;;;;;;5096706;28;20369;-55
2021/01/14 08:32:46;;;;;;;42.30;36.45;;;17.30;36.90;;;;;;5095564;28;20048;-55
2021/01/14 08:35:15;;;;;;;41.75;35.22;;;17.40;36.90;;;;;;5093185;28;20077;-55
2021/01/14 08:38:07;;;;;;;37.13;32.83;;;17.40;36.80;;;;;;5095526;28;20039;-54
2021/01/14 08:40:35;;;;;;;41.22;33.50;;;17.40;36.80;;;;;;5093539;28;20063;-54
2021/01/14 08:43:04;;;;;;;38.42;32.97;;;17.50;36.90;;;;;;5095597;28;20366;-55
2021/01/14 08:45:36;;;;;;;36.00;30.60;;;17.40;36.80;;;;;;5092687;28;20043;-55
2021/01/14 08:48:04;;;;;;;32.50;28.58;;;17.50;36.70;;;;;;5095395;28;20055;-56
2021/01/14 08:50:37;;;;;;;33.78;27.73;;;17.50;36.70;;;;;;5093397;28;20056;-55
2021/01/14 08:53:06;;;;;;;29.70;26.58;;;17.50;36.60;;;;;;5095505;28;20028;-55
2021/01/14 08:55:32;;;;;;;31.80;27.33;;;17.50;36.60;;;;;;5095934;28;20086;-55
2021/01/14 08:58:00;;;;;;;30.02;26.27;;;17.60;36.60;;;;;;5096029;28;20024;-55
2021/01/14 09:00:26;;;;;;;27.58;24.58;;;17.60;36.60;;;;;;5094504;28;20035;-55
2021/01/14 09:02:53;;;;;;;29.23;23.58;;;17.60;36.60;;;;;;5095582;28;20028;-55
2021/01/14 09:05:19;;;;;;;27.33;23.80;;;17.60;36.50;;;;;;5095795;28;20024;-55
2021/01/14 09:08:12;;;;;;;25.70;23.00;;;17.70;36.60;;;;;;5094696;28;20088;-55
2021/01/14 09:10:52;;;;;;;23.60;21.13;;;17.70;36.50;;;;;;5095778;28;20060;-55
2021/01/14 09:13:20;;;;;;;23.63;20.17;;;17.70;36.40;;;;;;5095826;28;20024;-55
2021/01/14 09:15:47;;;;;;;22.52;20.13;;;17.80;36.40;;;;;;5094880;28;20027;-55
2021/01/14 09:18:17;;;;;;;16.05;14.27;;;17.80;36.80;;;;;;5094017;28;20103;-58
2021/01/14 09:20:52;;;;;;;15.68;13.00;;;17.80;36.30;;;;;;5093752;28;20484;-60
2021/01/14 09:23:19;;;;;;;14.45;11.77;;;17.90;36.80;;;;;;5093685;28;20035;-59
2021/01/14 09:25:50;;;;;;;12.75;10.20;;;17.90;36.30;;;;;;5093818;28;20028;-59
2021/01/14 09:28:19;;;;;;;14.15;8.65;;;17.90;36.10;;;;;;5093587;28;20040;-58
2021/01/14 09:30:52;;;;;;;7.72;6.93;;;17.90;35.70;;;;;;5093449;28;20043;-58
2021/01/14 09:33:28;;;;;;;7.53;5.40;;;17.90;35.50;;;;;;5093466;28;20063;-59
2021/01/14 09:35:59;;;;;;;6.78;4.53;;;17.90;34.90;;;;;;5093413;28;20039;-59
2021/01/14 09:38:26;;;;;;;8.02;4.15;;;17.90;34.80;;;;;;5093216;28;20028;-59
2021/01/14 09:40:57;;;;;;;4.00;3.45;;;17.90;34.70;;;;;;5091928;28;20016;-59
2021/01/14 09:43:26;;;;;;;6.78;3.42;;;17.90;34.60;;;;;;5092687;28;20023;-59
2021/01/14 09:45:53;;;;;;;5.03;3.33;;;17.90;34.50;;;;;;5093143;28;20537;-59
2021/01/14 09:48:21;;;;;;;3.53;3.10;;;17.90;34.50;;;;;;5091771;28;20020;-59
2021/01/14 09:50:47;;;;;;;6.13;3.55;;;17.90;34.40;;;;;;5072730;28;20063;-59
2021/01/14 09:53:13;;;;;;;6.68;3.30;;;17.90;34.20;;;;;;5072554;28;20032;-58
2021/01/14 09:55:40;;;;;;;5.70;3.22;;;17.90;34.30;;;;;;5072929;28;20036;-59
2021/01/14 09:58:18;;;;;;;6.03;3.25;;;18.00;34.10;;;;;;5072597;28;20021;-60
2021/01/14 10:00:56;;;;;;;4.55;3.10;;;18.00;34.00;;;;;;5072940;28;20025;-59
2021/01/14 10:03:24;;;;;;;5.28;3.28;;;18.00;33.80;;;;;;5072446;28;20378;-60
2021/01/14 10:05:51;;;;;;;5.60;3.22;;;18.00;34.50;;;;;;5072630;28;20025;-59
2021/01/14 10:08:24;;;;;;;8.40;3.40;;;18.00;33.70;;;;;;5072360;28;20497;-60
2021/01/14 10:10:50;;;;;;;6.55;3.58;;;18.10;33.60;;;;;;5072553;28;20036;-59
2021/01/14 10:13:17;;;;;;;4.35;3.53;;;18.10;33.70;;;;;;5071959;28;20041;-59
2021/01/14 10:15:44;;;;;;;7.00;3.25;;;18.10;33.50;;;;;;5072284;28;20488;-60
2021/01/14 10:18:26;;;;;;;5.45;2.92;;;18.10;33.50;;;;;;5072279;28;20029;-61
2021/01/14 10:21:03;;;;;;;7.15;3.83;;;18.10;33.30;;;;;;5072209;28;20021;-60
2021/01/14 10:23:29;;;;;;;4.30;3.50;;;18.20;33.20;;;;;;5072528;28;20035;-61
2021/01/14 10:25:56;;;;;;;4.95;3.50;;;18.30;33.30;;;;;;5072458;28;20096;-60
2021/01/14 10:28:23;;;;;;;6.10;3.80;;;18.20;33.20;;;;;;5072122;28;20095;-61
2021/01/14 10:30:51;;;;;;;7.53;3.90;;;18.30;33.10;;;;;;5087840;28;20474;-61
2021/01/14 10:33:17;;;;;;;6.65;3.22;;;18.30;33.10;;;;;;5072263;28;20029;-61
2021/01/14 10:35:43;;;;;;;5.60;3.30;;;18.40;33.10;;;;;;5072031;28;20116;-60
2021/01/14 10:38:15;;;;;;;3.40;3.08;;;18.40;33.10;;;;;;5071807;28;20111;-60
2021/01/14 10:40:43;;;;;;;7.93;3.22;;;18.50;33.10;;;;;;5071977;28;20040;-61
2021/01/14 10:43:11;;;;;;;6.35;3.38;;;18.50;33.00;;;;;;5071809;28;20327;-60
2021/01/14 10:45:39;;;;;;;3.72;2.83;;;18.60;33.60;;;;;;5071896;28;20058;-62
2021/01/14 10:48:16;;;;;;;4.78;3.38;;;18.60;32.80;;;;;;5071718;28;20024;-61
2021/01/14 10:50:53;;;;;;;5.43;2.95;;;18.70;32.60;;;;;;5071589;28;20032;-61
2021/01/14 10:53:30;;;;;;;3.00;2.47;;;18.80;32.30;;;;;;5071806;28;20531;-62
2021/01/14 10:56:10;;;;;;;4.90;2.38;;;18.90;32.30;;;;;;5073921;28;20028;-61
2021/01/14 10:58:38;;;;;;;3.03;2.27;;;18.90;32.20;;;;;;5063303;28;20033;-60
2021/01/14 11:01:21;;;;;;;5.32;2.45;;;19.10;32.40;;;;;;5071729;28;20103;-61
2021/01/14 11:03:48;;;;;;;8.32;3.08;;;19.20;32.20;;;;;;5074231;28;20036;-58
2021/01/14 11:06:31;;;;;;;6.80;2.75;;;19.30;31.90;;;;;;5082221;28;20470;-57
2021/01/14 11:09:02;;;;;;;3.10;2.72;;;19.40;32.10;;;;;;5092059;28;20020;-59
2021/01/14 11:11:28;;;;;;;6.32;3.30;;;19.60;31.90;;;;;;5091791;28;20020;-59
2021/01/14 11:13:54;;;;;;;5.07;3.20;;;19.70;32.10;;;;;;5091276;28;20465;-59
2021/01/14 11:16:23;;;;;;;5.68;3.38;;;19.90;32.10;;;;;;5090706;28;20098;-58
2021/01/14 11:18:57;;;;;;;4.97;3.30;;;20.00;32.00;;;;;;5091846;28;20023;-59
2021/01/14 11:21:31;;;;;;;5.07;3.20;;;20.20;31.60;;;;;;5091722;28;20028;-59
2021/01/14 11:23:58;;;;;;;3.70;3.30;;;20.40;31.50;;;;;;5075778;28;20040;-58
2021/01/14 11:26:24;;;;;;;4.80;3.67;;;20.60;31.90;;;;;;5090480;28;20020;-59
2021/01/14 11:28:51;;;;;;;5.82;3.88;;;20.90;31.80;;;;;;5095928;28;20432;-55
2021/01/14 11:31:23;;;;;;;6.00;4.22;;;21.10;31.90;;;;;;5097014;28;20542;-59
2021/01/14 11:33:49;;;;;;;5.35;4.22;;;21.50;31.30;;;;;;5095909;28;20481;-56
2021/01/14 11:36:19;;;;;;;6.78;4.00;;;21.80;31.50;;;;;;5096265;28;20020;-59
2021/01/14 11:38:45;;;;;;;11.80;4.72;;;22.10;31.00;;;;;;5095777;28;20043;-60
2021/01/14 11:41:15;;;;;;;4.93;3.47;;;22.40;30.80;;;;;;5096330;28;20040;-62
2021/01/14 11:43:41;;;;;;;7.28;5.25;;;22.70;30.50;;;;;;5095476;28;20081;-61
2021/01/14 11:46:07;;;;;;;7.38;5.20;;;23.00;30.50;;;;;;5097144;28;20106;-59
2021/01/14 11:48:33;;;;;;;6.93;4.80;;;23.30;30.10;;;;;;5096175;28;20024;-59
2021/01/14 11:50:59;;;;;;;5.82;5.22;;;23.50;29.90;;;;;;5094819;28;20024;-62
2021/01/14 11:53:25;;;;;;;11.25;5.22;;;23.80;29.80;;;;;;5095815;28;20457;-64
2021/01/14 11:55:51;;;;;;;5.15;4.25;;;24.00;29.60;;;;;;5095985;28;20035;-65
2021/01/14 11:58:17;;;;;;;6.63;4.25;;;24.30;29.40;;;;;;5096153;28;20024;-59
2021/01/14 12:00:44;;;;;;;6.00;4.15;;;24.50;29.20;;;;;;5096457;28;20105;-61
2021/01/14 12:03:11;;;;;;;5.90;4.47;;;24.60;28.90;;;;;;5096228;28;20019;-61
2021/01/14 12:05:37;;;;;;;6.45;4.93;;;24.80;28.80;;;;;;5096259;28;20024;-60
2021/01/14 12:08:03;;;;;;;4.90;3.50;;;25.00;28.60;;;;;;5096748;28;20048;-61
2021/01/14 12:10:29;;;;;;;5.03;3.70;;;25.10;28.50;;;;;;5094303;28;20028;-63
2021/01/14 12:12:55;;;;;;;5.95;4.00;;;25.20;28.20;;;;;;5095235;28;20028;-62
2021/01/14 12:15:21;;;;;;;3.90;3.50;;;25.30;28.30;;;;;;5095919;28;20047;-61
2021/01/14 12:17:47;;;;;;;5.47;3.55;;;25.40;28.10;;;;;;5095870;28;20044;-60
2021/01/14 12:20:14;;;;;;;4.97;3.90;;;25.50;28.10;;;;;;5095316;28;20060;-66
2021/01/14 12:22:40;;;;;;;3.97;3.20;;;25.60;28.00;;;;;;5094599;28;20026;-57
2021/01/14 12:25:10;;;;;;;5.78;3.40;;;25.60;27.70;;;;;;5095892;28;20035;-54
2021/01/14 12:27:37;;;;;;;4.43;3.55;;;25.70;27.80;;;;;;5096303;28;20059;-54
2021/01/14 12:30:05;;;;;;;4.57;3.72;;;25.70;27.60;;;;;;5096338;28;20031;-54
2021/01/14 12:32:32;;;;;;;6.93;4.00;;;25.80;27.70;;;;;;5095755;28;20048;-53
2021/01/14 12:34:59;;;;;;;5.35;4.28;;;25.80;27.80;;;;;;5095005;28;20047;-53
2021/01/14 12:37:31;;;;;;;6.45;4.80;;;25.80;27.80;;;;;;5094285;28;20027;-54
2021/01/14 12:39:57;;;;;;;8.02;5.10;;;25.80;27.70;;;;;;5095580;28;20540;-53
2021/01/14 12:42:23;;;;;;;8.88;6.28;;;25.90;28.00;;;;;;5084324;28;20016;-53
2021/01/14 12:44:49;;;;;;;6.55;5.28;;;25.90;28.10;;;;;;5075329;28;20112;-53
2021/01/14 12:47:15;;;;;;;8.35;5.68;;;25.90;28.10;;;;;;5087674;28;20477;-53